Time,TemperatureF,DewpointF,PressureIn,WindDirection,WindDirectionDegrees,WindSpeedMPH,WindSpeedGustMPH,Humidity,HourlyPrecipIn,Conditions,Clouds,dailyrainin,SoftwareType,DateUTC
2013-02-02 00:08:00,17.4,9.3,30.11,WNW,292,3.7,-999.0,70,-99.99,,,0.00,Acu-Link.com,2013-02-02 05:08:00,
2013-02-02 00:23:00,17.4,9.9,30.12,West,270,4.2,-999.0,72,-99.99,,,0.00,Acu-Link.com,2013-02-02 05:23:00,
2013-02-02 00:38:00,17.8,10.3,30.11,West,270,6.3,-999.0,72,-99.99,,,0.00,Acu-Link.com,2013-02-02 05:38:00,
2013-02-02 00:53:00,18.1,10.3,30.11,WNW,292,5.8,-999.0,71,-99.99,,,0.00,Acu-Link.com,2013-02-02 05:53:00,
2013-02-02 01:09:00,18.0,10.5,30.10,WNW,292,4.2,-999.0,72,-99.99,,,0.00,Acu-Link.com,2013-02-02 06:09:00,
2013-02-02 01:24:00,17.8,10.6,30.11,WSW,247,5.3,-999.0,73,-99.99,,,0.00,Acu-Link.com,2013-02-02 06:24:00,
2013-02-02 01:39:00,16.3,13.9,30.11,WSW,247,6.8,-999.0,90,-99.99,,,0.00,Acu-Link.com,2013-02-02 06:39:00,
2013-02-02 01:55:00,16.2,14.8,30.10,WSW,247,3.7,-999.0,94,-99.99,,,0.00,Acu-Link.com,2013-02-02 06:55:00,
2013-02-02 02:10:00,16.2,14.8,30.10,SW,225,2.2,-999.0,94,-99.99,,,0.00,Acu-Link.com,2013-02-02 07:10:00,
2013-02-02 02:25:00,15.8,13.9,30.10,WNW,292,5.3,-999.0,92,-99.99,,,0.00,Acu-Link.com,2013-02-02 07:25:00,
2013-02-02 02:41:00,15.8,14.1,30.10,WNW,292,4.7,-999.0,93,-99.99,,,0.00,Acu-Link.com,2013-02-02 07:41:00,
2013-02-02 02:56:00,15.8,14.1,30.10,WSW,247,4.7,-999.0,93,-99.99,,,0.00,Acu-Link.com,2013-02-02 07:56:00,
2013-02-02 03:11:00,15.8,14.6,30.09,WSW,247,4.2,-999.0,95,-99.99,,,0.00,Acu-Link.com,2013-02-02 08:11:00,
2013-02-02 03:26:00,15.6,14.7,30.09,WNW,292,4.2,-999.0,96,-99.99,,,0.00,Acu-Link.com,2013-02-02 08:26:00,
2013-02-02 03:42:00,15.4,14.5,30.08,WNW,292,5.3,-999.0,96,-99.99,,,0.00,Acu-Link.com,2013-02-02 08:42:00,
2013-02-02 03:57:00,15.1,13.9,30.09,NW,315,4.2,-999.0,95,-99.99,,,0.00,Acu-Link.com,2013-02-02 08:57:00,
2013-02-02 04:17:00,14.9,13.2,30.08,NW,315,5.8,-999.0,93,-99.99,,,0.00,Acu-Link.com,2013-02-02 09:17:00,
2013-02-02 04:32:00,14.2,10.8,30.08,WSW,247,6.8,-999.0,86,-99.99,,,0.00,Acu-Link.com,2013-02-02 09:32:00,
2013-02-02 04:47:00,13.8,9.3,30.09,NW,315,7.8,-999.0,82,-99.99,,,0.00,Acu-Link.com,2013-02-02 09:47:00,
2013-02-02 05:02:00,13.5,7.9,30.08,WNW,292,6.3,-999.0,78,-99.99,,,0.00,Acu-Link.com,2013-02-02 10:02:00,
2013-02-02 05:17:00,13.5,8.5,30.07,West,270,5.8,-999.0,80,-99.99,,,0.00,Acu-Link.com,2013-02-02 10:17:00,
2013-02-02 05:32:00,13.6,8.0,30.07,West,270,10.9,-999.0,78,-99.99,,,0.00,Acu-Link.com,2013-02-02 10:32:00,
2013-02-02 05:48:00,13.8,8.8,30.06,WSW,247,3.7,-999.0,80,-99.99,,,0.00,Acu-Link.com,2013-02-02 10:48:00,
2013-02-02 06:03:00,14.4,7.1,30.06,SW,225,4.2,-999.0,72,-99.99,,,0.00,Acu-Link.com,2013-02-02 11:03:00,
2013-02-02 06:18:00,14.4,11.5,30.06,SW,225,5.3,-999.0,88,-99.99,,,0.00,Acu-Link.com,2013-02-02 11:18:00,
2013-02-02 06:34:00,14.2,12.6,30.06,South,180,3.7,-999.0,93,-99.99,,,0.00,Acu-Link.com,2013-02-02 11:34:00,
2013-02-02 06:49:00,14.2,12.8,30.05,SSW,202,4.2,-999.0,94,-99.99,,,0.00,Acu-Link.com,2013-02-02 11:49:00,
2013-02-02 07:04:00,14.2,13.0,30.05,South,180,3.7,-999.0,95,-99.99,,,0.00,Acu-Link.com,2013-02-02 12:04:00,
2013-02-02 07:20:00,14.0,12.8,30.05,SSW,202,2.7,-999.0,95,-99.99,,,0.00,Acu-Link.com,2013-02-02 12:20:00,
2013-02-02 07:35:00,13.8,12.6,30.04,South,180,0.0,-999.0,95,-99.99,,,0.00,Acu-Link.com,2013-02-02 12:35:00,
2013-02-02 07:50:00,13.6,12.4,30.04,SSW,202,0.0,-999.0,95,-99.99,,,0.00,Acu-Link.com,2013-02-02 12:50:00,
2013-02-02 08:06:00,14.4,13.0,30.04,SSW,202,0.0,-999.0,94,-99.99,,,0.00,Acu-Link.com,2013-02-02 13:06:00,
2013-02-02 08:21:00,14.5,12.1,30.03,SSE,157,0.0,-999.0,90,-99.99,,,0.00,Acu-Link.com,2013-02-02 13:21:00,
2013-02-02 08:36:00,15.1,12.2,30.03,SSW,202,0.0,-999.0,88,-99.99,,,0.00,Acu-Link.com,2013-02-02 13:36:00,
2013-02-02 08:51:00,15.6,11.9,30.02,SW,225,0.0,-999.0,85,-99.99,,,0.00,Acu-Link.com,2013-02-02 13:51:00,
2013-02-02 09:07:00,16.0,11.2,30.02,SSW,202,0.0,-999.0,81,-99.99,,,0.00,Acu-Link.com,2013-02-02 14:07:00,
2013-02-02 09:22:00,16.2,11.7,30.02,SW,225,0.0,-999.0,82,-99.99,,,0.00,Acu-Link.com,2013-02-02 14:22:00,
2013-02-02 09:37:00,16.7,10.8,30.01,SSE,157,0.0,-999.0,77,-99.99,,,0.00,Acu-Link.com,2013-02-02 14:37:00,
2013-02-02 09:53:00,17.2,11.8,30.01,SSW,202,3.2,-999.0,79,-99.99,,,0.00,Acu-Link.com,2013-02-02 14:53:00,
2013-02-02 10:08:00,17.4,11.4,30.00,SW,225,7.3,-999.0,77,-99.99,,,0.00,Acu-Link.com,2013-02-02 15:08:00,
2013-02-02 10:23:00,17.6,11.9,30.00,West,270,4.2,-999.0,78,-99.99,,,0.00,Acu-Link.com,2013-02-02 15:23:00,
2013-02-02 10:39:00,19.0,13.0,29.99,SSW,202,5.3,-999.0,77,-99.99,,,0.00,Acu-Link.com,2013-02-02 15:39:00,
2013-02-02 10:54:00,18.1,12.1,30.00,SSW,202,5.8,-999.0,77,-99.99,,,0.00,Acu-Link.com,2013-02-02 15:54:00,
2013-02-02 11:09:00,18.5,12.8,29.99,SW,225,6.8,-999.0,78,-99.99,,,0.00,Acu-Link.com,2013-02-02 16:09:00,
2013-02-02 11:25:00,18.1,13.0,29.99,SSW,202,4.2,-999.0,80,-99.99,,,0.00,Acu-Link.com,2013-02-02 16:25:00,
2013-02-02 11:40:00,18.7,13.6,29.98,SW,225,7.8,-999.0,80,-99.99,,,0.00,Acu-Link.com,2013-02-02 16:40:00,
2013-02-02 11:55:00,19.4,14.3,29.97,South,180,8.9,-999.0,80,-99.99,,,0.00,Acu-Link.com,2013-02-02 16:55:00,
2013-02-02 12:11:00,19.4,14.8,29.96,SE,135,3.2,-999.0,82,-99.99,,,0.00,Acu-Link.com,2013-02-02 17:11:00,
2013-02-02 12:26:00,19.9,15.3,29.95,SW,225,9.4,-999.0,82,-99.99,,,0.00,Acu-Link.com,2013-02-02 17:26:00,
2013-02-02 12:41:00,20.1,14.9,29.95,SW,225,4.7,-999.0,80,-99.99,,,0.00,Acu-Link.com,2013-02-02 17:41:00,
2013-02-02 12:57:00,19.4,14.8,29.94,SSE,157,9.4,-999.0,82,-99.99,,,0.00,Acu-Link.com,2013-02-02 17:57:00,
2013-02-02 13:12:00,20.3,15.4,29.93,SSW,202,5.8,-999.0,81,-99.99,,,0.00,Acu-Link.com,2013-02-02 18:12:00,
2013-02-02 13:27:00,20.3,15.1,29.93,SSW,202,6.8,-999.0,80,-99.99,,,0.00,Acu-Link.com,2013-02-02 18:27:00,
2013-02-02 13:42:00,20.3,15.1,29.92,SW,225,5.3,-999.0,80,-99.99,,,0.00,Acu-Link.com,2013-02-02 18:42:00,
2013-02-02 13:58:00,19.9,14.7,29.92,SSW,202,9.9,-999.0,80,-99.99,,,0.00,Acu-Link.com,2013-02-02 18:58:00,
2013-02-02 14:13:00,20.1,14.9,29.91,SSW,202,2.7,-999.0,80,-99.99,,,0.00,Acu-Link.com,2013-02-02 19:13:00,
2013-02-02 14:28:00,20.3,14.3,29.91,SSW,202,8.9,-999.0,77,-99.99,,,0.00,Acu-Link.com,2013-02-02 19:28:00,
2013-02-02 14:43:00,20.5,14.8,29.91,South,180,8.3,-999.0,78,-99.99,,,0.00,Acu-Link.com,2013-02-02 19:43:00,
2013-02-02 14:58:00,20.7,15.2,29.90,SSW,202,6.8,-999.0,79,-99.99,,,0.00,Acu-Link.com,2013-02-02 19:58:00,
2013-02-02 15:14:00,20.7,15.5,29.90,SW,225,4.2,-999.0,80,-99.99,,,0.00,Acu-Link.com,2013-02-02 20:14:00,
2013-02-02 15:29:00,20.5,16.4,29.90,SSW,202,4.7,-999.0,84,-99.99,,,0.00,Acu-Link.com,2013-02-02 20:29:00,
2013-02-02 15:44:00,20.3,16.0,29.90,SSW,202,4.2,-999.0,83,-99.99,,,0.00,Acu-Link.com,2013-02-02 20:44:00,
2013-02-02 16:00:00,19.9,15.9,29.90,SSW,202,6.8,-999.0,84,-99.99,,,0.00,Acu-Link.com,2013-02-02 21:00:00,
2013-02-02 16:15:00,19.8,16.0,29.90,SW,225,3.7,-999.0,85,-99.99,,,0.00,Acu-Link.com,2013-02-02 21:15:00,
2013-02-02 16:30:00,19.8,16.3,29.90,South,180,4.7,-999.0,86,-99.99,,,0.00,Acu-Link.com,2013-02-02 21:30:00,
2013-02-02 16:46:00,19.4,16.2,29.90,South,180,2.7,-999.0,87,-99.99,,,0.00,Acu-Link.com,2013-02-02 21:46:00,
2013-02-02 17:01:00,19.4,16.4,29.90,SSW,202,2.7,-999.0,88,-99.99,,,0.00,Acu-Link.com,2013-02-02 22:01:00,
2013-02-02 17:16:00,19.2,16.2,29.90,SW,225,5.3,-999.0,88,-99.99,,,0.00,Acu-Link.com,2013-02-02 22:16:00,
2013-02-02 17:32:00,19.0,16.3,29.90,South,180,3.7,-999.0,89,-99.99,,,0.00,Acu-Link.com,2013-02-02 22:32:00,
2013-02-02 17:47:00,18.9,16.2,29.90,SW,225,3.2,-999.0,89,-99.99,,,0.00,Acu-Link.com,2013-02-02 22:47:00,
2013-02-02 18:02:00,18.9,16.2,29.90,SSE,157,2.7,-999.0,89,-99.99,,,0.00,Acu-Link.com,2013-02-02 23:02:00,
2013-02-02 18:18:00,18.9,15.9,29.90,SSE,157,2.7,-999.0,88,-99.99,,,0.00,Acu-Link.com,2013-02-02 23:18:00,
2013-02-02 18:33:00,18.9,15.9,29.90,South,180,3.7,-999.0,88,-99.99,,,0.00,Acu-Link.com,2013-02-02 23:33:00,
2013-02-02 18:48:00,18.5,15.3,29.90,SSE,157,3.7,-999.0,87,-99.99,,,0.00,Acu-Link.com,2013-02-02 23:48:00,
2013-02-02 19:04:00,18.5,15.3,29.90,South,180,3.2,-999.0,87,-99.99,,,0.00,Acu-Link.com,2013-02-03 00:04:00,
2013-02-02 19:19:00,18.3,14.8,29.89,South,180,3.7,-999.0,86,-99.99,,,0.00,Acu-Link.com,2013-02-03 00:19:00,
2013-02-02 19:34:00,18.1,14.6,29.90,SE,135,4.7,-999.0,86,-99.99,,,0.00,Acu-Link.com,2013-02-03 00:34:00,
2013-02-02 19:49:00,18.1,14.6,29.90,SSW,202,2.7,-999.0,86,-99.99,,,0.00,Acu-Link.com,2013-02-03 00:49:00,
2013-02-02 20:05:00,18.3,14.8,29.90,SSW,202,1.7,-999.0,86,-99.99,,,0.00,Acu-Link.com,2013-02-03 01:05:00,
2013-02-02 20:20:00,18.3,14.8,29.90,SW,225,1.7,-999.0,86,-99.99,,,0.00,Acu-Link.com,2013-02-03 01:20:00,
2013-02-02 20:35:00,18.7,15.5,29.90,SSW,202,1.7,-999.0,87,-99.99,,,0.00,Acu-Link.com,2013-02-03 01:35:00,
2013-02-02 20:51:00,18.5,15.8,29.91,SW,225,1.7,-999.0,89,-99.99,,,0.00,Acu-Link.com,2013-02-03 01:51:00,
2013-02-02 21:06:00,18.5,16.3,29.91,SW,225,1.7,-999.0,91,-99.99,,,0.00,Acu-Link.com,2013-02-03 02:06:00,
2013-02-02 21:21:00,18.3,16.4,29.90,SSE,157,2.7,-999.0,92,-99.99,,,0.00,Acu-Link.com,2013-02-03 02:21:00,
2013-02-02 21:37:00,18.0,16.3,29.90,SE,135,2.2,-999.0,93,-99.99,,,0.00,Acu-Link.com,2013-02-03 02:37:00,
2013-02-02 21:52:00,18.0,16.6,29.90,SE,135,2.7,-999.0,94,-99.99,,,0.00,Acu-Link.com,2013-02-03 02:52:00,
2013-02-02 22:07:00,17.8,16.4,29.90,SE,135,2.2,-999.0,94,-99.99,,,0.00,Acu-Link.com,2013-02-03 03:07:00,
2013-02-02 22:23:00,16.9,15.7,29.89,SE,135,0.0,-999.0,95,-99.99,,,0.00,Acu-Link.com,2013-02-03 03:23:00,
2013-02-02 22:38:00,16.2,15.0,29.89,SE,135,0.0,-999.0,95,-99.99,,,0.00,Acu-Link.com,2013-02-03 03:38:00,
2013-02-02 22:53:00,15.1,13.9,29.89,SE,135,0.0,-999.0,95,-99.99,,,0.00,Acu-Link.com,2013-02-03 03:53:00,
2013-02-02 23:08:00,14.0,13.3,29.89,SE,135,0.0,-999.0,97,-99.99,,,0.00,Acu-Link.com,2013-02-03 04:08:00,
2013-02-02 23:24:00,13.3,12.4,29.89,SE,135,0.0,-999.0,96,-99.99,,,0.00,Acu-Link.com,2013-02-03 04:24:00,
2013-02-02 23:39:00,12.9,12.0,29.89,SE,135,0.0,-999.0,96,-99.99,,,0.00,Acu-Link.com,2013-02-03 04:39:00,
2013-02-02 23:54:00,12.7,11.8,29.89,SE,135,0.0,-999.0,96,-99.99,,,0.00,Acu-Link.com,2013-02-03 04:54:00,